Time;durP1;ratioP1;P1;durP2;ratioP2;P2;SDS_P1;SDS_P2;PMS_P1;PMS_P2;Temp;Humidity;BMP_temperature;BMP_pressure;BME280_temperature;BME280_humidity;BME280_pressure;Samples;Min_cycle;Max_cycle;Signal;HPM_P1;HPM_P2
2022/04/06 00:00:43;;;;;;;11.83;6.00;;;10.00;97.30;;;;;;4974056;28;20422;-82
2022/04/06 00:03:09;;;;;;;10.30;5.70;;;10.00;97.30;;;;;;4974072;28;20245;-82
2022/04/06 00:05:35;;;;;;;14.30;7.30;;;10.00;97.30;;;;;;4974859;28;20414;-82
2022/04/06 00:08:01;;;;;;;10.27;5.17;;;10.00;97.30;;;;;;4975030;28;20221;-82
2022/04/06 00:10:28;;;;;;;11.40;6.27;;;10.00;97.30;;;;;;4975985;28;20702;-82
2022/04/06 00:12:54;;;;;;;12.00;5.80;;;10.00;97.30;;;;;;4974185;28;20921;-82
2022/04/06 00:15:21;;;;;;;11.80;6.67;;;10.00;97.30;;;;;;4973866;28;20472;-82
2022/04/06 00:17:49;;;;;;;12.47;6.20;;;10.00;97.30;;;;;;4974419;28;20430;-82
2022/04/06 00:20:15;;;;;;;11.07;5.73;;;10.00;97.30;;;;;;4974490;28;20418;-82
2022/04/06 00:22:41;;;;;;;12.67;6.20;;;10.10;97.30;;;;;;4974805;28;20808;-82
2022/04/06 00:25:07;;;;;;;13.20;5.87;;;10.00;97.30;;;;;;4975246;28;20217;-82
2022/04/06 00:27:32;;;;;;;11.50;4.90;;;10.00;97.30;;;;;;4976336;28;20179;-83
2022/04/06 00:29:58;;;;;;;10.33;5.67;;;9.90;97.30;;;;;;4978354;28;20493;-82
2022/04/06 00:32:25;;;;;;;10.30;5.27;;;9.90;97.30;;;;;;4978074;28;20185;-83
2022/04/06 00:37:34;;;;;;;8.73;4.93;;;9.80;97.30;;;;;;4980334;28;20532;-83
2022/04/06 00:40:00;;;;;;;11.40;4.87;;;9.80;97.30;;;;;;4977870;28;20931;-83
2022/04/06 00:42:26;;;;;;;12.90;6.37;;;9.70;97.30;;;;;;4978709;28;20943;-83
2022/04/06 00:44:51;;;;;;;11.60;5.07;;;9.70;97.30;;;;;;4978069;28;20202;-82
2022/04/06 00:47:17;;;;;;;9.07;4.90;;;9.70;97.30;;;;;;4975928;28;20187;-82
2022/04/06 00:49:43;;;;;;;11.00;4.60;;;9.60;97.30;;;;;;4959394;28;20187;-83
2022/04/06 00:52:09;;;;;;;10.93;4.70;;;9.60;97.30;;;;;;4959666;28;20195;-83
2022/04/06 00:54:37;;;;;;;9.33;4.90;;;9.60;97.30;;;;;;4959159;28;20262;-82
2022/04/06 00:57:03;;;;;;;9.40;6.00;;;9.60;97.30;;;;;;4986826;28;20529;-82
2022/04/06 00:59:30;;;;;;;10.10;6.30;;;9.60;97.30;;;;;;4998084;28;20453;-82
2022/04/06 01:01:58;;;;;;;8.60;4.90;;;9.60;97.30;;;;;;4996875;28;20475;-82
2022/04/06 01:04:24;;;;;;;10.77;5.77;;;9.60;97.30;;;;;;4988369;28;20442;-83
2022/04/06 01:06:52;;;;;;;10.33;5.23;;;9.60;97.30;;;;;;4958081;29;20758;-82
2022/04/06 01:09:18;;;;;;;10.53;5.70;;;9.60;97.30;;;;;;4957705;29;20423;-82
2022/04/06 01:11:46;;;;;;;13.10;5.50;;;9.60;97.30;;;;;;4975116;28;20492;-82
2022/04/06 01:14:12;;;;;;;10.47;5.30;;;9.60;97.30;;;;;;4989855;28;20533;-82
2022/04/06 01:16:39;;;;;;;11.00;5.23;;;9.60;97.30;;;;;;4996705;28;20428;-82
2022/04/06 01:19:04;;;;;;;9.63;5.43;;;9.60;97.30;;;;;;4996619;28;20428;-82
2022/04/06 01:21:30;;;;;;;9.10;4.73;;;9.50;97.30;;;;;;4996149;28;20927;-82
2022/04/06 01:23:56;;;;;;;10.40;5.10;;;9.50;97.30;;;;;;4978116;28;20610;-82
2022/04/06 01:26:22;;;;;;;12.40;5.47;;;9.50;97.30;;;;;;4977531;28;20185;-82
2022/04/06 01:28:48;;;;;;;11.40;5.10;;;9.50;97.30;;;;;;4976954;28;20512;-82
2022/04/06 01:31:15;;;;;;;7.43;4.67;;;9.50;97.30;;;;;;4976918;28;20418;-82
2022/04/06 01:33:40;;;;;;;10.50;5.47;;;9.50;97.30;;;;;;4976759;28;20433;-81
2022/04/06 01:36:06;;;;;;;13.57;5.80;;;9.50;97.30;;;;;;4976946;28;20488;-80
2022/04/06 01:38:32;;;;;;;15.90;5.70;;;9.40;97.30;;;;;;4976681;28;20197;-82
2022/04/06 01:40:58;;;;;;;12.97;5.67;;;9.40;97.30;;;;;;4976774;28;20175;-82
2022/04/06 01:43:23;;;;;;;8.27;4.73;;;9.40;97.30;;;;;;4977480;28;20619;-82
2022/04/06 01:45:49;;;;;;;11.83;5.73;;;9.40;97.30;;;;;;4978041;28;20607;-82
2022/04/06 01:48:15;;;;;;;9.27;5.00;;;9.40;97.30;;;;;;4976741;28;20179;-82
2022/04/06 01:53:27;;;;;;;10.57;5.17;;;9.50;97.30;;;;;;4978295;28;20436;-82
2022/04/06 01:55:54;;;;;;;12.70;5.70;;;9.50;97.30;;;;;;4976437;28;20994;-83
2022/04/06 01:58:20;;;;;;;15.53;5.30;;;9.50;97.30;;;;;;4977491;28;20836;-82
2022/04/06 02:00:46;;;;;;;11.27;7.40;;;9.50;97.30;;;;;;4977491;28;20481;-82
2022/04/06 02:03:11;;;;;;;9.07;5.43;;;9.50;97.30;;;;;;4976867;28;20233;-82
2022/04/06 02:05:37;;;;;;;9.03;4.73;;;9.60;97.30;;;;;;4994780;28;20919;-82
2022/04/06 02:08:03;;;;;;;9.80;4.63;;;9.60;97.30;;;;;;4996438;28;20193;-83
2022/04/06 02:10:28;;;;;;;10.30;4.30;;;9.60;97.30;;;;;;4995696;28;20177;-82
2022/04/06 02:12:57;;;;;;;7.57;4.20;;;9.60;97.30;;;;;;4996435;28;20185;-83
2022/04/06 02:15:24;;;;;;;10.27;4.80;;;9.60;97.30;;;;;;4996296;28;20194;-82
2022/04/06 02:17:50;;;;;;;14.17;5.03;;;9.60;97.30;;;;;;4996041;28;20417;-82
2022/04/06 02:20:16;;;;;;;11.10;4.30;;;9.60;97.30;;;;;;4997114;28;20795;-83
2022/04/06 02:22:42;;;;;;;9.30;5.33;;;9.60;97.30;;;;;;4984056;28;20526;-82
2022/04/06 02:25:09;;;;;;;10.70;5.73;;;9.50;97.30;;;;;;4974478;28;20490;-82
2022/04/06 02:27:44;;;;;;;9.37;5.63;;;9.50;97.30;;;;;;4957747;29;20407;-82
2022/04/06 02:30:10;;;;;;;10.13;5.40;;;9.50;97.30;;;;;;4957816;29;20453;-82
2022/04/06 02:32:35;;;;;;;10.27;5.87;;;9.50;97.30;;;;;;4972694;28;20423;-83
2022/04/06 02:35:01;;;;;;;9.60;5.60;;;9.50;97.30;;;;;;4959528;28;20461;-83
2022/04/06 02:37:27;;;;;;;13.67;5.13;;;9.50;97.30;;;;;;4975578;28;20230;-83
2022/04/06 02:39:52;;;;;;;14.27;6.23;;;9.50;97.30;;;;;;4976840;28;20442;-83
2022/04/06 02:42:18;;;;;;;11.90;5.77;;;9.50;97.30;;;;;;4975746;28;20210;-83
2022/04/06 02:44:43;;;;;;;11.60;5.37;;;9.50;97.30;;;;;;4976191;28;20281;-82
2022/04/06 02:47:09;;;;;;;12.70;5.50;;;9.40;97.30;;;;;;4976181;28;20179;-82
2022/04/06 02:49:35;;;;;;;14.40;6.00;;;9.40;97.30;;;;;;4976082;28;20181;-83
2022/04/06 02:52:00;;;;;;;13.27;7.23;;;9.40;97.30;;;;;;4975198;28;20193;-83
2022/04/06 02:54:26;;;;;;;13.90;6.43;;;9.40;97.30;;;;;;4977954;28;20273;-83
2022/04/06 02:56:52;;;;;;;21.60;8.70;;;9.40;97.30;;;;;;4977110;28;20178;-83
2022/04/06 02:59:17;;;;;;;17.27;8.73;;;9.50;97.30;;;;;;4976574;28;20189;-82
2022/04/06 03:01:43;;;;;;;19.57;8.47;;;9.50;97.30;;;;;;4975867;28;20276;-82
2022/04/06 03:04:08;;;;;;;20.00;8.20;;;9.50;97.30;;;;;;4977549;28;20194;-82
2022/04/06 03:06:34;;;;;;;14.37;8.03;;;9.50;97.30;;;;;;4976487;28;20167;-82
2022/04/06 03:09:00;;;;;;;20.63;9.63;;;9.40;97.30;;;;;;4976365;28;20171;-82
2022/04/06 03:11:26;;;;;;;18.00;8.50;;;9.50;97.30;;;;;;4976072;28;20171;-82
2022/04/06 03:13:52;;;;;;;15.63;7.10;;;9.40;97.30;;;;;;4976300;28;20270;-83
2022/04/06 03:16:18;;;;;;;18.13;8.17;;;9.40;97.30;;;;;;4976429;28;20943;-82
2022/04/06 03:18:43;;;;;;;18.57;7.90;;;9.40;97.30;;;;;;4976255;28;20183;-82
2022/04/06 03:21:09;;;;;;;20.20;8.53;;;9.40;97.30;;;;;;4991631;28;20301;-82
2022/04/06 03:23:34;;;;;;;16.73;8.20;;;9.40;97.30;;;;;;4975925;28;20210;-82
2022/04/06 03:26:00;;;;;;;19.73;8.90;;;9.40;97.30;;;;;;4975996;28;20182;-82
2022/04/06 03:28:25;;;;;;;16.50;8.07;;;9.40;97.30;;;;;;4991297;28;20170;-81
2022/04/06 03:30:51;;;;;;;22.77;9.90;;;9.40;97.30;;;;;;4975733;28;20456;-81
2022/04/06 03:33:16;;;;;;;21.40;9.93;;;9.50;97.30;;;;;;4975593;28;20198;-82
2022/04/06 03:35:42;;;;;;;24.00;10.80;;;9.50;97.30;;;;;;4992623;28;20185;-83
2022/04/06 03:38:08;;;;;;;20.87;8.90;;;9.50;97.30;;;;;;4975408;28;20337;-82
2022/04/06 03:40:33;;;;;;;27.93;10.83;;;9.50;97.30;;;;;;4975309;28;20190;-83
2022/04/06 03:42:59;;;;;;;25.03;9.00;;;9.50;97.30;;;;;;4974999;28;20214;-82
2022/04/06 03:45:25;;;;;;;20.10;9.17;;;9.50;97.30;;;;;;4976048;28;20257;-82
2022/04/06 03:47:50;;;;;;;18.37;8.50;;;9.40;97.30;;;;;;4975860;28;20190;-82
2022/04/06 03:50:16;;;;;;;23.80;8.33;;;9.40;97.30;;;;;;4976101;28;20186;-82
2022/04/06 03:52:42;;;;;;;18.50;7.87;;;9.40;97.30;;;;;;4977532;28;20210;-82
2022/04/06 03:55:08;;;;;;;21.90;7.80;;;9.40;97.30;;;;;;4975676;28;20206;-82
2022/04/06 03:57:38;;;;;;;11.93;6.03;;;9.40;97.30;;;;;;4975426;28;20265;-82
2022/04/06 04:00:05;;;;;;;14.30;6.03;;;9.40;97.30;;;;;;4976229;28;20808;-82
2022/04/06 04:02:31;;;;;;;17.30;6.70;;;9.40;97.30;;;;;;4978490;28;20619;-82
2022/04/06 04:04:57;;;;;;;12.63;6.17;;;9.40;97.30;;;;;;4992388;28;20848;-82
2022/04/06 04:07:23;;;;;;;12.70;5.07;;;9.40;97.30;;;;;;4999188;28;20420;-83
2022/04/06 04:09:49;;;;;;;17.60;6.13;;;9.40;97.30;;;;;;5001011;28;20178;-83
2022/04/06 04:12:16;;;;;;;11.20;5.67;;;9.40;97.30;;;;;;4999959;28;20182;-82
2022/04/06 04:14:44;;;;;;;14.90;5.93;;;9.40;97.30;;;;;;4999501;28;20450;-82
2022/04/06 04:17:10;;;;;;;14.53;4.97;;;9.40;97.30;;;;;;4999233;28;20525;-82
2022/04/06 04:19:36;;;;;;;15.63;4.33;;;9.40;97.30;;;;;;4999517;28;20425;-82
2022/04/06 04:22:02;;;;;;;9.00;4.43;;;9.40;97.30;;;;;;5000804;28;20209;-82
2022/04/06 04:24:27;;;;;;;9.63;4.30;;;9.40;97.30;;;;;;5000120;28;20445;-81
2022/04/06 04:26:53;;;;;;;5.27;3.53;;;9.40;97.30;;;;;;5000014;28;20189;-81
2022/04/06 04:29:19;;;;;;;13.70;4.80;;;9.40;97.30;;;;;;5000583;28;20477;-81
2022/04/06 04:31:46;;;;;;;12.20;4.20;;;9.40;97.30;;;;;;4999901;28;20448;-81
2022/04/06 04:34:11;;;;;;;12.37;4.77;;;9.40;97.30;;;;;;4999986;28;20946;-81
2022/04/06 04:36:37;;;;;;;14.30;5.20;;;9.40;97.30;;;;;;5002134;28;20504;-81
2022/04/06 04:39:03;;;;;;;15.20;3.60;;;9.40;97.30;;;;;;5000292;28;20189;-81
2022/04/06 04:41:29;;;;;;;9.60;4.20;;;9.40;97.30;;;;;;5000447;28;20173;-81
2022/04/06 04:43:54;;;;;;;8.67;4.23;;;9.40;97.30;;;;;;4999920;28;20213;-81
2022/04/06 04:46:21;;;;;;;8.50;3.83;;;9.40;97.30;;;;;;5000391;28;20579;-81
2022/04/06 04:48:47;;;;;;;10.77;4.60;;;9.40;97.30;;;;;;4999955;28;20177;-82
2022/04/06 04:51:14;;;;;;;13.10;4.80;;;9.40;97.30;;;;;;5001099;28;20440;-81
2022/04/06 04:53:41;;;;;;;15.60;4.73;;;9.40;97.30;;;;;;4999240;28;20852;-81
2022/04/06 04:56:07;;;;;;;20.37;5.10;;;9.40;97.30;;;;;;5001495;28;20827;-81
2022/04/06 04:58:33;;;;;;;9.90;4.40;;;9.40;97.30;;;;;;4999505;28;20440;-81
2022/04/06 05:00:59;;;;;;;12.00;5.10;;;9.40;97.30;;;;;;5001684;28;20412;-82
2022/04/06 05:03:24;;;;;;;15.33;6.53;;;9.40;97.30;;;;;;4999580;28;20248;-81
2022/04/06 05:05:53;;;;;;;11.53;4.77;;;9.40;97.30;;;;;;5000011;28;20177;-81
2022/04/06 05:08:22;;;;;;;15.40;6.10;;;9.40;97.30;;;;;;4999498;28;20265;-81
2022/04/06 05:10:48;;;;;;;11.07;5.30;;;9.40;97.30;;;;;;4999386;28;20421;-81
2022/04/06 05:13:14;;;;;;;15.37;6.30;;;9.30;97.30;;;;;;4998496;28;20421;-82
2022/04/06 05:15:40;;;;;;;14.33;6.17;;;9.30;97.30;;;;;;4999091;28;20212;-82
2022/04/06 05:18:06;;;;;;;12.03;5.60;;;9.30;97.30;;;;;;4999117;28;20483;-81
2022/04/06 05:20:32;;;;;;;12.23;6.30;;;9.30;97.30;;;;;;4983233;28;20442;-81
2022/04/06 05:22:58;;;;;;;14.37;6.00;;;9.30;97.30;;;;;;4964241;28;20459;-81
2022/04/06 05:25:24;;;;;;;10.87;5.53;;;9.30;97.30;;;;;;4960439;29;20417;-81
2022/04/06 05:27:51;;;;;;;14.63;6.60;;;9.30;97.30;;;;;;4961133;29;20176;-81
2022/04/06 05:30:19;;;;;;;19.90;7.60;;;9.30;97.30;;;;;;4960953;28;20183;-81
2022/04/06 05:32:46;;;;;;;16.13;6.80;;;9.40;97.30;;;;;;4960135;28;20469;-81
2022/04/06 05:35:12;;;;;;;12.67;6.73;;;9.40;97.30;;;;;;4960353;28;20465;-81
2022/04/06 05:37:43;;;;;;;13.60;6.77;;;9.40;97.30;;;;;;4960376;29;20471;-81
2022/04/06 05:40:10;;;;;;;18.20;7.57;;;9.50;97.30;;;;;;4961446;28;20427;-81
2022/04/06 05:42:36;;;;;;;14.20;6.73;;;9.50;97.30;;;;;;4959826;28;20956;-81
2022/04/06 05:45:03;;;;;;;21.70;9.07;;;9.50;97.30;;;;;;4960052;28;20450;-81
2022/04/06 05:47:29;;;;;;;20.57;7.53;;;9.60;97.30;;;;;;4959714;28;20708;-82
2022/04/06 05:49:55;;;;;;;14.07;6.73;;;9.60;97.30;;;;;;4959984;28;20422;-82
2022/04/06 05:52:21;;;;;;;16.60;7.07;;;9.60;97.30;;;;;;4959609;29;20648;-82
2022/04/06 05:54:46;;;;;;;16.70;6.90;;;9.60;97.30;;;;;;4976392;28;20210;-82
2022/04/06 05:57:12;;;;;;;14.90;6.70;;;9.60;97.30;;;;;;4959407;28;20254;-81
2022/04/06 05:59:37;;;;;;;12.60;6.50;;;9.70;97.30;;;;;;4959794;28;20547;-81
2022/04/06 06:02:09;;;;;;;16.37;7.10;;;9.70;97.30;;;;;;4975733;28;20200;-81
2022/04/06 06:04:35;;;;;;;17.60;6.73;;;9.70;97.30;;;;;;4960211;28;20711;-81
2022/04/06 06:07:01;;;;;;;15.10;7.50;;;9.70;97.30;;;;;;4960058;28;20431;-82
2022/04/06 06:09:29;;;;;;;15.37;6.77;;;9.70;97.30;;;;;;4959204;29;20187;-82
2022/04/06 06:11:55;;;;;;;19.40;7.27;;;9.70;97.30;;;;;;4959124;29;20991;-84
2022/04/06 06:14:21;;;;;;;12.00;6.00;;;9.70;97.30;;;;;;4958813;28;20443;-84
2022/04/06 06:16:49;;;;;;;12.10;5.73;;;9.80;97.30;;;;;;4958991;28;20187;-83
2022/04/06 06:19:15;;;;;;;12.40;6.53;;;9.80;97.30;;;;;;4956382;29;20478;-83
2022/04/06 06:21:40;;;;;;;15.50;6.93;;;9.80;97.30;;;;;;4956495;29;20477;-82
2022/04/06 06:24:06;;;;;;;16.40;6.47;;;9.80;97.30;;;;;;4956637;28;20446;-83
2022/04/06 06:26:37;;;;;;;22.20;6.63;;;9.80;97.30;;;;;;4956623;28;20207;-83
2022/04/06 06:29:03;;;;;;;13.20;6.20;;;9.80;97.30;;;;;;4956609;28;20530;-83
2022/04/06 06:31:29;;;;;;;16.87;6.07;;;9.80;97.30;;;;;;4956509;29;20443;-83
2022/04/06 06:33:56;;;;;;;15.97;6.60;;;9.90;97.30;;;;;;4957653;28;21115;-83
2022/04/06 06:36:23;;;;;;;15.40;6.60;;;9.80;97.30;;;;;;4956402;29;20705;-83
2022/04/06 06:38:49;;;;;;;15.57;6.60;;;9.90;97.30;;;;;;4955452;29;20433;-82
2022/04/06 06:41:15;;;;;;;11.47;6.27;;;9.90;97.30;;;;;;4956163;29;20423;-83
2022/04/06 06:43:40;;;;;;;12.50;5.97;;;9.90;97.30;;;;;;4955849;28;20537;-83
2022/04/06 06:46:06;;;;;;;16.30;6.93;;;9.90;97.30;;;;;;4956638;29;20210;-83
2022/04/06 06:48:31;;;;;;;11.20;6.70;;;9.90;97.30;;;;;;4957116;29;20250;-83
2022/04/06 06:50:57;;;;;;;11.50;5.70;;;9.90;97.30;;;;;;4955890;29;20183;-82
2022/04/06 06:53:23;;;;;;;10.80;5.40;;;9.90;97.30;;;;;;4956802;28;20202;-82
2022/04/06 06:55:48;;;;;;;12.67;5.77;;;9.90;97.30;;;;;;4956076;29;20295;-82
2022/04/06 06:58:14;;;;;;;16.83;5.80;;;9.90;97.30;;;;;;4955771;29;20198;-83
2022/04/06 07:00:39;;;;;;;10.57;5.97;;;10.00;97.30;;;;;;4956567;29;20597;-83
2022/04/06 07:03:05;;;;;;;12.60;5.20;;;10.00;97.30;;;;;;4956971;28;20251;-83
2022/04/06 07:05:31;;;;;;;16.30;6.80;;;10.00;97.30;;;;;;4956711;29;20175;-82
2022/04/06 07:08:02;;;;;;;20.63;6.50;;;10.00;97.30;;;;;;4956745;29;20268;-83
2022/04/06 07:10:29;;;;;;;10.00;4.80;;;10.00;97.30;;;;;;4956234;29;20187;-82
2022/04/06 07:12:55;;;;;;;14.90;6.13;;;10.00;97.30;;;;;;4955977;29;20466;-83
2022/04/06 07:15:22;;;;;;;16.37;6.20;;;10.00;97.30;;;;;;4955743;28;20447;-83
2022/04/06 07:17:55;;;;;;;10.50;6.00;;;10.00;97.30;;;;;;4957085;28;20211;-82
2022/04/06 07:20:26;;;;;;;13.67;5.80;;;10.00;97.30;;;;;;4955475;29;20431;-82
2022/04/06 07:22:52;;;;;;;10.83;6.57;;;10.10;97.30;;;;;;4955563;29;20501;-82
2022/04/06 07:25:18;;;;;;;13.83;5.63;;;10.10;97.30;;;;;;4957179;28;20778;-83
2022/04/06 07:27:44;;;;;;;12.60;6.00;;;10.10;97.30;;;;;;4955789;29;20681;-83
2022/04/06 07:30:12;;;;;;;13.60;6.07;;;10.20;97.30;;;;;;4955554;28;20415;-82
2022/04/06 07:32:37;;;;;;;11.83;5.83;;;10.20;97.30;;;;;;4955198;29;20261;-83
2022/04/06 07:35:04;;;;;;;12.33;5.37;;;10.30;97.30;;;;;;4954835;28;20823;-82
2022/04/06 07:37:41;;;;;;;12.27;5.80;;;10.30;97.30;;;;;;4954126;28;20290;-82
2022/04/06 07:40:08;;;;;;;15.30;5.80;;;10.30;97.30;;;;;;4938795;29;20876;-83
2022/04/06 07:42:35;;;;;;;13.03;5.60;;;10.40;97.30;;;;;;4955118;29;20548;-83
2022/04/06 07:45:07;;;;;;;13.00;6.00;;;10.40;97.30;;;;;;4954955;28;20529;-83
2022/04/06 07:47:33;;;;;;;8.93;5.23;;;10.50;97.30;;;;;;4956316;29;20425;-82
2022/04/06 07:49:58;;;;;;;12.33;5.37;;;10.50;97.30;;;;;;4956533;28;20502;-82
2022/04/06 07:52:27;;;;;;;14.60;5.37;;;10.50;97.30;;;;;;4958020;29;20466;-81
2022/04/06 07:54:53;;;;;;;11.37;5.50;;;10.60;97.30;;;;;;4957067;28;20739;-81
2022/04/06 07:57:24;;;;;;;10.90;5.90;;;10.60;97.30;;;;;;4957119;28;20423;-82
2022/04/06 07:59:51;;;;;;;12.90;5.77;;;10.60;97.30;;;;;;4956887;29;20541;-82
2022/04/06 08:02:16;;;;;;;16.83;6.20;;;10.70;97.30;;;;;;4957085;29;20462;-81
2022/04/06 08:04:42;;;;;;;15.57;6.43;;;10.70;97.30;;;;;;4966545;28;20441;-82
2022/04/06 08:07:08;;;;;;;10.60;5.00;;;10.70;97.30;;;;;;4975335;28;20656;-81
2022/04/06 08:09:34;;;;;;;16.70;6.83;;;10.80;97.30;;;;;;4975902;28;20417;-82
2022/04/06 08:12:00;;;;;;;18.33;5.93;;;10.80;97.30;;;;;;4977179;28;20171;-82
2022/04/06 08:14:26;;;;;;;9.37;4.90;;;10.90;97.30;;;;;;4975433;28;20194;-82
2022/04/06 08:16:52;;;;;;;10.43;5.43;;;11.00;97.30;;;;;;4976471;28;20808;-82
2022/04/06 08:19:17;;;;;;;14.27;5.87;;;11.00;97.30;;;;;;4976768;28;20497;-82
2022/04/06 08:21:43;;;;;;;14.30;5.40;;;11.00;97.30;;;;;;4976656;28;20175;-82
2022/04/06 08:24:08;;;;;;;10.00;5.40;;;11.00;97.30;;;;;;4977086;28;20207;-82
2022/04/06 08:26:34;;;;;;;13.17;7.73;;;11.00;97.30;;;;;;4975754;28;20262;-82
2022/04/06 08:29:00;;;;;;;16.47;5.87;;;11.00;97.30;;;;;;4975929;28;20178;-82
2022/04/06 08:31:25;;;;;;;8.67;5.23;;;11.10;97.30;;;;;;4974675;28;20183;-82
2022/04/06 08:33:51;;;;;;;11.53;5.40;;;11.10;97.30;;;;;;4976765;28;20311;-82
2022/04/06 08:36:16;;;;;;;10.50;4.73;;;11.10;97.30;;;;;;4974957;28;20222;-81
2022/04/06 08:38:43;;;;;;;18.70;5.63;;;11.20;97.30;;;;;;4977415;28;20213;-81
2022/04/06 08:41:09;;;;;;;11.20;4.87;;;11.20;97.30;;;;;;4977297;28;20178;-81
2022/04/06 08:43:34;;;;;;;13.73;5.50;;;11.30;97.30;;;;;;4974695;28;21003;-82
2022/04/06 08:46:02;;;;;;;9.60;4.93;;;11.40;97.30;;;;;;4977351;28;20433;-82
2022/04/06 08:48:29;;;;;;;8.00;4.43;;;11.40;97.30;;;;;;4977383;28;20185;-82
2022/04/06 08:50:59;;;;;;;9.80;4.90;;;11.40;97.30;;;;;;4978596;28;20422;-79
2022/04/06 08:53:25;;;;;;;15.03;5.90;;;11.50;97.30;;;;;;4979204;28;20982;-80
2022/04/06 08:55:51;;;;;;;9.60;4.60;;;11.50;97.30;;;;;;4978191;28;20426;-79
2022/04/06 08:58:17;;;;;;;8.20;4.40;;;11.50;97.30;;;;;;4979110;28;20414;-79
2022/04/06 09:00:43;;;;;;;11.13;4.53;;;11.60;97.30;;;;;;4977469;28;20245;-80
2022/04/06 09:03:11;;;;;;;7.90;4.40;;;11.60;97.30;;;;;;4977213;28;20453;-80
2022/04/06 09:05:37;;;;;;;9.43;4.73;;;11.70;97.30;;;;;;4976596;28;20182;-80
2022/04/06 09:08:04;;;;;;;12.20;5.00;;;11.80;97.30;;;;;;4977584;28;20488;-80
2022/04/06 09:10:35;;;;;;;15.93;5.40;;;11.80;97.30;;;;;;4978184;28;20846;-80
2022/04/06 09:13:08;;;;;;;8.63;4.77;;;11.90;97.30;;;;;;4978463;28;20449;-79
2022/04/06 09:15:34;;;;;;;12.33;5.43;;;12.00;97.30;;;;;;4977873;28;20942;-80
2022/04/06 09:18:01;;;;;;;13.07;5.13;;;12.00;97.30;;;;;;4977216;28;20476;-81
2022/04/06 09:20:28;;;;;;;11.40;4.53;;;12.10;97.30;;;;;;4977832;28;20697;-80
2022/04/06 09:22:54;;;;;;;11.67;4.80;;;12.10;97.30;;;;;;4977532;28;20537;-80
2022/04/06 09:25:20;;;;;;;9.53;4.17;;;12.10;97.30;;;;;;4976615;28;20529;-79
2022/04/06 09:27:47;;;;;;;9.10;4.37;;;12.20;97.20;;;;;;4976607;28;20526;-79
2022/04/06 09:30:13;;;;;;;10.00;4.43;;;12.20;97.00;;;;;;4975982;28;20422;-79
2022/04/06 09:32:42;;;;;;;9.90;4.87;;;12.20;97.10;;;;;;4976014;28;20421;-80
2022/04/06 09:35:28;;;;;;;9.07;3.90;;;12.30;96.90;;;;;;4977469;28;21144;-79
2022/04/06 09:38:11;;;;;;;10.53;5.07;;;12.30;96.50;;;;;;4988753;28;20476;-80
2022/04/06 09:40:40;;;;;;;8.50;4.10;;;12.40;97.20;;;;;;4978673;28;20481;-79
2022/04/06 09:43:08;;;;;;;10.60;4.33;;;12.50;96.90;;;;;;4976344;28;20476;-79
2022/04/06 09:48:18;;;;;;;8.00;4.13;;;12.30;95.50;;;;;;4978123;28;20425;-79
2022/04/06 09:50:57;;;;;;;7.43;3.93;;;12.30;95.40;;;;;;4975779;28;20442;-78
2022/04/06 09:53:26;;;;;;;10.27;4.40;;;12.30;95.40;;;;;;4997196;28;20251;-79
2022/04/06 09:55:54;;;;;;;6.57;3.70;;;12.20;95.60;;;;;;4988777;28;20434;-80
2022/04/06 09:58:22;;;;;;;8.57;4.00;;;12.20;95.90;;;;;;4977728;28;20430;-79
2022/04/06 10:00:48;;;;;;;9.27;3.50;;;12.30;95.60;;;;;;4991894;28;20464;-80
2022/04/06 10:03:15;;;;;;;8.13;3.67;;;12.40;94.60;;;;;;4977381;28;20457;-80
2022/04/06 10:05:42;;;;;;;7.97;3.43;;;12.60;93.70;;;;;;4976238;28;20429;-79
2022/04/06 10:08:09;;;;;;;8.13;4.00;;;12.70;93.20;;;;;;4976985;28;20775;-80
2022/04/06 10:10:36;;;;;;;13.10;4.60;;;12.60;92.80;;;;;;4977539;28;20512;-79
2022/04/06 10:13:07;;;;;;;6.20;3.57;;;12.60;93.10;;;;;;4976352;28;20429;-79
2022/04/06 10:15:35;;;;;;;7.23;4.00;;;12.60;93.40;;;;;;4992439;28;20465;-80
2022/04/06 10:18:02;;;;;;;12.97;3.93;;;12.70;93.70;;;;;;4976915;28;20425;-81
2022/04/06 10:20:35;;;;;;;9.40;4.53;;;12.60;92.50;;;;;;4977014;28;20456;-80
2022/04/06 10:23:30;;;;;;;4.23;2.70;;;12.60;92.40;;;;;;4976548;28;20553;-82
2022/04/06 10:26:21;;;;;;;6.63;3.03;;;12.60;92.20;;;;;;4976583;28;20417;-83
2022/04/06 10:28:49;;;;;;;4.83;3.00;;;12.70;91.60;;;;;;4971519;28;20434;-83
2022/04/06 10:31:20;;;;;;;4.40;3.37;;;12.60;90.30;;;;;;4978959;28;20819;-82
2022/04/06 10:33:46;;;;;;;6.60;2.67;;;12.60;90.70;;;;;;4978359;28;20827;-82
2022/04/06 10:36:23;;;;;;;5.00;3.47;;;12.60;89.60;;;;;;4977492;28;20509;-84
2022/04/06 10:39:04;;;;;;;6.77;2.40;;;12.70;89.30;;;;;;4992844;28;20851;-81
2022/04/06 10:41:31;;;;;;;3.93;2.57;;;12.70;89.00;;;;;;4976427;28;20417;-82
2022/04/06 10:43:57;;;;;;;6.30;2.60;;;12.80;88.80;;;;;;4976249;28;20480;-82
2022/04/06 10:46:40;;;;;;;6.50;2.80;;;13.00;89.30;;;;;;4977131;28;20421;-82
2022/04/06 10:49:06;;;;;;;8.23;4.80;;;13.30;88.60;;;;;;4976714;28;20701;-81
2022/04/06 10:51:37;;;;;;;5.37;2.50;;;13.40;88.30;;;;;;4975371;28;20471;-83
2022/04/06 10:54:12;;;;;;;5.10;2.60;;;13.80;89.30;;;;;;4992406;28;20217;-81
2022/04/06 10:56:52;;;;;;;5.37;2.80;;;14.20;87.00;;;;;;4974503;28;20432;-82
2022/04/06 10:59:21;;;;;;;5.73;2.40;;;14.10;85.30;;;;;;4976478;28;20426;-82
2022/04/06 11:01:51;;;;;;;2.87;2.10;;;14.00;85.30;;;;;;4975547;28;20468;-82
2022/04/06 11:04:23;;;;;;;4.53;2.83;;;14.00;84.60;;;;;;4976099;28;20982;-83
2022/04/06 11:07:00;;;;;;;5.10;2.13;;;14.00;84.40;;;;;;4975394;28;20422;-83
2022/04/06 11:12:19;;;;;;;5.40;2.60;;;13.80;85.30;;;;;;4974251;28;20501;-84
2022/04/06 11:15:05;;;;;;;6.17;2.93;;;14.00;85.80;;;;;;4974785;28;20446;-82
2022/04/06 11:17:42;;;;;;;4.50;2.40;;;13.90;84.60;;;;;;4955990;28;20482;-84
2022/04/06 11:20:42;;;;;;;8.07;3.30;;;13.70;84.60;;;;;;4974454;28;20421;-83
2022/04/06 11:23:08;;;;;;;5.67;2.57;;;13.50;84.30;;;;;;4974185;28;20470;-82
2022/04/06 11:25:34;;;;;;;5.37;2.10;;;13.60;85.40;;;;;;4977904;28;20422;-82
2022/04/06 11:28:07;;;;;;;7.80;2.47;;;13.70;85.50;;;;;;4975572;28;20429;-82
2022/04/06 11:30:34;;;;;;;3.17;2.13;;;13.60;85.40;;;;;;4975557;28;20187;-83
2022/04/06 11:33:01;;;;;;;3.70;1.93;;;13.40;84.80;;;;;;4976235;28;20457;-84
2022/04/06 11:35:33;;;;;;;4.30;2.17;;;13.30;84.90;;;;;;4971505;28;20421;-84
2022/04/06 11:37:59;;;;;;;2.43;1.80;;;13.70;85.60;;;;;;4971551;28;20442;-84
2022/04/06 11:40:27;;;;;;;4.90;1.93;;;14.20;84.60;;;;;;4973138;28;20441;-81
2022/04/06 11:42:58;;;;;;;6.37;2.60;;;14.60;83.60;;;;;;4974623;28;20462;-83
2022/04/06 11:45:44;;;;;;;4.30;1.77;;;14.50;82.60;;;;;;4974518;28;20959;-84
2022/04/06 11:48:15;;;;;;;3.80;2.20;;;14.10;83.00;;;;;;4975721;28;20457;-83
2022/04/06 11:50:42;;;;;;;4.90;2.27;;;13.80;83.70;;;;;;4976094;28;20681;-83
2022/04/06 11:53:17;;;;;;;2.63;1.90;;;13.80;84.60;;;;;;4970820;28;20438;-84
2022/04/06 11:55:48;;;;;;;8.13;2.37;;;13.90;84.40;;;;;;4983176;28;20448;-84
2022/04/06 11:58:34;;;;;;;2.93;1.87;;;14.20;84.40;;;;;;4981879;28;20425;-83
2022/04/06 12:01:01;;;;;;;2.83;1.80;;;14.20;83.30;;;;;;4975566;28;20480;-83
2022/04/06 12:03:32;;;;;;;7.47;2.60;;;14.30;83.30;;;;;;4996351;28;20555;-84
2022/04/06 12:05:58;;;;;;;2.30;1.73;;;14.30;82.90;;;;;;4995447;28;20428;-83
2022/04/06 12:08:23;;;;;;;6.80;2.23;;;14.40;82.60;;;;;;4994220;28;20417;-82
2022/04/06 12:10:51;;;;;;;2.93;1.90;;;14.30;82.50;;;;;;4980444;28;20456;-84
2022/04/06 12:13:18;;;;;;;5.40;1.90;;;14.10;82.50;;;;;;4954406;28;20183;-84
2022/04/06 12:15:48;;;;;;;4.03;2.20;;;14.40;83.40;;;;;;4956721;29;20426;-83
2022/04/06 12:18:20;;;;;;;5.60;2.00;;;14.40;82.40;;;;;;4957815;29;20743;-83
2022/04/06 12:20:48;;;;;;;3.60;2.50;;;14.60;82.80;;;;;;4956714;29;20454;-83
2022/04/06 12:23:15;;;;;;;4.23;1.90;;;14.90;82.30;;;;;;4972557;28;20461;-83
2022/04/06 12:25:41;;;;;;;7.53;2.60;;;15.20;81.70;;;;;;4981120;28;20410;-84
2022/04/06 12:28:18;;;;;;;10.93;2.60;;;15.20;81.10;;;;;;4981185;28;20421;-84
2022/04/06 12:30:54;;;;;;;5.40;2.30;;;15.40;82.10;;;;;;4980689;28;20413;-83
2022/04/06 12:33:45;;;;;;;5.40;2.80;;;15.30;80.40;;;;;;4996830;28;20445;-83
2022/04/06 12:36:23;;;;;;;4.87;3.20;;;15.40;80.90;;;;;;4969803;28;20474;-83
2022/04/06 12:38:57;;;;;;;7.53;2.60;;;15.50;81.30;;;;;;4973594;28;20955;-84
2022/04/06 12:41:25;;;;;;;4.73;2.87;;;15.30;80.50;;;;;;4961758;29;20422;-83
2022/04/06 12:43:51;;;;;;;5.33;2.10;;;15.20;80.80;;;;;;4961245;29;20481;-83
2022/04/06 12:46:37;;;;;;;3.90;2.43;;;15.30;81.20;;;;;;4960385;28;20422;-83
2022/04/06 12:49:26;;;;;;;4.63;2.20;;;15.20;81.50;;;;;;4961085;28;20517;-83
2022/04/06 12:52:13;;;;;;;5.87;2.80;;;15.20;80.90;;;;;;4960744;29;20418;-83
2022/04/06 12:54:44;;;;;;;8.03;2.80;;;15.40;81.20;;;;;;4976826;28;20445;-83
2022/04/06 12:57:13;;;;;;;5.80;2.17;;;15.50;81.40;;;;;;4978289;28;20410;-83
2022/04/06 12:59:39;;;;;;;4.80;2.50;;;15.40;80.90;;;;;;4982565;28;20429;-83